Time;durP1;ratioP1;P1;durP2;ratioP2;P2;SDS_P1;SDS_P2;PMS_P1;PMS_P2;Temp;Humidity;BMP_temperature;BMP_pressure;BME280_temperature;BME280_humidity;BME280_pressure;Samples;Min_cycle;Max_cycle;Signal;HPM_P1;HPM_P2
2024/02/14 00:00:43;;;;;;;5.90;5.40;;;8.60;99.90;;;;;;5134671;27;20317;-77
2024/02/14 00:03:10;;;;;;;6.47;5.88;;;8.60;99.90;;;;;;5123943;27;20600;-77
2024/02/14 00:05:37;;;;;;;7.97;5.15;;;8.60;99.90;;;;;;5135048;27;20228;-77
2024/02/14 00:08:05;;;;;;;6.38;5.85;;;8.60;99.90;;;;;;5134762;27;20228;-77
2024/02/14 00:10:32;;;;;;;7.80;5.85;;;8.60;99.90;;;;;;5135011;27;20280;-77
2024/02/14 00:12:59;;;;;;;8.15;5.28;;;8.60;99.90;;;;;;5134242;27;20230;-77
2024/02/14 00:15:30;;;;;;;7.53;5.80;;;8.60;99.90;;;;;;5118179;27;20210;-77
2024/02/14 00:17:57;;;;;;;6.00;5.38;;;8.60;99.90;;;;;;5113844;28;20226;-77
2024/02/14 00:20:28;;;;;;;6.20;5.70;;;8.60;99.90;;;;;;5103322;28;20227;-76
2024/02/14 00:22:55;;;;;;;6.10;5.60;;;8.60;99.90;;;;;;5113389;28;20252;-76
2024/02/14 00:25:22;;;;;;;6.15;5.00;;;8.60;99.90;;;;;;5127359;27;20683;-75
2024/02/14 00:27:51;;;;;;;6.90;5.10;;;8.60;99.90;;;;;;5134875;27;20682;-76
2024/02/14 00:30:19;;;;;;;6.25;5.57;;;8.60;99.90;;;;;;5134461;27;20213;-76
2024/02/14 00:32:58;;;;;;;5.90;5.40;;;8.60;99.90;;;;;;5134455;27;20555;-77
2024/02/14 00:35:25;;;;;;;6.65;6.05;;;8.60;99.90;;;;;;5134269;27;20264;-76
2024/02/14 00:37:53;;;;;;;8.73;5.85;;;8.60;99.90;;;;;;5134249;27;20218;-76
2024/02/14 00:40:23;;;;;;;8.45;6.68;;;8.50;99.90;;;;;;5134283;27;20249;-76
2024/02/14 00:42:50;;;;;;;9.20;6.43;;;8.50;99.90;;;;;;5134228;27;20233;-76
2024/02/14 00:45:17;;;;;;;7.03;5.97;;;8.60;99.90;;;;;;5133564;27;20233;-75
2024/02/14 00:47:44;;;;;;;6.55;6.05;;;8.60;99.90;;;;;;5134500;27;20218;-76
2024/02/14 00:50:15;;;;;;;6.00;5.40;;;8.50;99.90;;;;;;5123853;27;20572;-76
2024/02/14 00:52:43;;;;;;;9.27;5.88;;;8.50;99.90;;;;;;5133103;27;20225;-76
2024/02/14 00:55:10;;;;;;;7.90;6.10;;;8.50;99.90;;;;;;5133941;27;20249;-76
2024/02/14 00:57:40;;;;;;;6.45;5.85;;;8.50;99.90;;;;;;5134672;27;20560;-76
2024/02/14 01:00:08;;;;;;;6.15;5.55;;;8.50;99.90;;;;;;5133165;27;20222;-76
2024/02/14 01:02:35;;;;;;;8.02;5.40;;;8.50;99.90;;;;;;5127404;27;20234;-76
2024/02/14 01:05:04;;;;;;;9.07;6.10;;;8.50;99.90;;;;;;5116064;27;20229;-76
2024/02/14 01:07:32;;;;;;;9.65;5.93;;;8.50;99.90;;;;;;5114996;27;20218;-76
2024/02/14 01:09:59;;;;;;;5.78;5.25;;;8.50;99.90;;;;;;5112762;28;20256;-76
2024/02/14 01:12:26;;;;;;;6.10;5.60;;;8.50;99.90;;;;;;5130772;27;20236;-76
2024/02/14 01:14:54;;;;;;;7.07;6.38;;;8.50;99.90;;;;;;5114282;27;20233;-76
2024/02/14 01:17:26;;;;;;;6.68;5.65;;;8.50;99.90;;;;;;5113180;28;20226;-77
2024/02/14 01:19:54;;;;;;;7.03;6.00;;;8.50;99.90;;;;;;5113558;28;20233;-76
2024/02/14 01:22:21;;;;;;;5.55;4.75;;;8.40;99.90;;;;;;5111243;28;20260;-76
2024/02/14 01:24:50;;;;;;;8.32;7.32;;;8.40;99.90;;;;;;5111218;28;20246;-76
2024/02/14 01:27:17;;;;;;;6.25;5.22;;;8.40;99.90;;;;;;5109861;28;20736;-76
2024/02/14 01:29:44;;;;;;;6.40;5.22;;;8.40;99.90;;;;;;5117715;28;20253;-76
2024/02/14 01:32:11;;;;;;;5.90;5.30;;;8.40;99.90;;;;;;5130046;28;20300;-77
2024/02/14 01:34:38;;;;;;;6.70;5.57;;;8.40;99.90;;;;;;5121435;27;20278;-77
2024/02/14 01:37:06;;;;;;;5.85;5.35;;;8.40;99.90;;;;;;5116054;28;20223;-76
2024/02/14 01:39:33;;;;;;;6.38;5.72;;;8.40;99.90;;;;;;5131170;27;20255;-77
2024/02/14 01:42:05;;;;;;;6.60;6.00;;;8.40;99.90;;;;;;5123306;28;20256;-76
2024/02/14 01:44:36;;;;;;;6.22;5.35;;;8.40;99.90;;;;;;5111066;28;20241;-76
2024/02/14 01:47:03;;;;;;;7.03;6.38;;;8.30;99.90;;;;;;5111710;28;20309;-76
2024/02/14 01:49:31;;;;;;;6.03;5.55;;;8.40;99.90;;;;;;5111222;28;20687;-76
2024/02/14 01:52:02;;;;;;;7.15;5.60;;;8.40;99.90;;;;;;5115807;28;20259;-77
2024/02/14 01:54:30;;;;;;;6.18;5.68;;;8.40;99.90;;;;;;5112746;28;20222;-77
2024/02/14 01:56:58;;;;;;;8.18;6.70;;;8.40;99.90;;;;;;5113400;28;20593;-76
2024/02/14 01:59:28;;;;;;;5.70;5.20;;;8.40;99.90;;;;;;5112977;28;20238;-77
2024/02/14 02:01:55;;;;;;;5.45;4.97;;;8.40;99.90;;;;;;5113365;28;20214;-77
2024/02/14 02:04:22;;;;;;;7.90;6.25;;;8.30;99.90;;;;;;5112941;28;20219;-76
2024/02/14 02:06:49;;;;;;;6.10;5.50;;;8.30;99.90;;;;;;5113343;28;20221;-77
2024/02/14 02:09:16;;;;;;;7.53;6.10;;;8.30;99.90;;;;;;5126737;28;20538;-77
2024/02/14 02:11:48;;;;;;;7.75;6.07;;;8.30;99.90;;;;;;5133710;27;20218;-76
2024/02/14 02:14:16;;;;;;;7.25;6.40;;;8.30;99.90;;;;;;5137457;27;20226;-76
2024/02/14 02:16:45;;;;;;;6.30;4.82;;;8.30;99.90;;;;;;5135606;27;20226;-77
2024/02/14 02:19:13;;;;;;;5.82;5.13;;;8.40;99.90;;;;;;5137480;27;20298;-76
2024/02/14 02:21:40;;;;;;;6.38;5.60;;;8.40;99.90;;;;;;5136919;27;20225;-77
2024/02/14 02:24:09;;;;;;;7.80;5.68;;;8.40;99.90;;;;;;5137357;27;20225;-77
2024/02/14 02:26:36;;;;;;;7.28;5.43;;;8.40;99.90;;;;;;5136452;27;20667;-77
2024/02/14 02:29:06;;;;;;;5.93;5.35;;;8.40;99.90;;;;;;5137376;27;20228;-77
2024/02/14 02:31:33;;;;;;;7.18;6.28;;;8.40;99.90;;;;;;5120250;27;20368;-77
2024/02/14 02:34:00;;;;;;;12.57;9.02;;;8.50;99.90;;;;;;5116551;28;20218;-77
2024/02/14 02:36:29;;;;;;;6.45;5.85;;;8.50;99.90;;;;;;5115407;28;20703;-76
2024/02/14 02:38:57;;;;;;;6.05;5.45;;;8.50;99.90;;;;;;5131001;27;20214;-76
2024/02/14 02:41:33;;;;;;;6.60;5.82;;;8.40;99.90;;;;;;5135108;27;20214;-77
2024/02/14 02:44:01;;;;;;;6.13;5.53;;;8.40;99.90;;;;;;5135461;27;20225;-77
2024/02/14 02:46:29;;;;;;;6.30;5.70;;;8.40;99.90;;;;;;5136431;27;20225;-77
2024/02/14 02:48:57;;;;;;;6.15;5.55;;;8.40;99.90;;;;;;5136155;27;20222;-77
2024/02/14 02:51:24;;;;;;;5.93;5.30;;;8.40;99.90;;;;;;5134588;27;20221;-77
2024/02/14 02:53:51;;;;;;;6.20;5.65;;;8.40;99.90;;;;;;5136833;27;20300;-76
2024/02/14 02:56:18;;;;;;;6.38;5.68;;;8.40;99.90;;;;;;5137114;27;20240;-77
2024/02/14 02:58:48;;;;;;;7.25;5.65;;;8.40;99.90;;;;;;5116985;27;20214;-77
2024/02/14 03:01:15;;;;;;;6.10;5.50;;;8.40;99.90;;;;;;5115423;28;20691;-77
2024/02/14 03:03:42;;;;;;;6.47;5.53;;;8.40;99.90;;;;;;5115601;28;20238;-77
2024/02/14 03:06:09;;;;;;;5.65;5.00;;;8.40;99.90;;;;;;5115017;28;20219;-76
2024/02/14 03:08:36;;;;;;;6.72;6.03;;;8.30;99.90;;;;;;5123828;27;20219;-76
2024/02/14 03:11:06;;;;;;;7.13;5.40;;;8.30;99.90;;;;;;5130897;27;20677;-76
2024/02/14 03:13:35;;;;;;;5.97;5.47;;;8.30;99.90;;;;;;5123935;27;20570;-77
2024/02/14 03:16:04;;;;;;;7.35;6.10;;;8.20;99.90;;;;;;5129086;27;20252;-77
2024/02/14 03:18:32;;;;;;;6.63;5.95;;;8.20;99.90;;;;;;5135703;27;20214;-77
2024/02/14 03:20:59;;;;;;;5.80;5.20;;;8.20;99.90;;;;;;5117119;27;20225;-77
2024/02/14 03:23:27;;;;;;;7.68;6.68;;;8.20;99.90;;;;;;5114878;28;20218;-77
2024/02/14 03:25:54;;;;;;;6.50;5.90;;;8.20;99.90;;;;;;5132901;27;20218;-76
2024/02/14 03:28:21;;;;;;;6.82;6.30;;;8.20;99.90;;;;;;5135544;27;20686;-77
2024/02/14 03:30:49;;;;;;;6.10;5.50;;;8.20;99.90;;;;;;5134148;27;20259;-76
2024/02/14 03:33:17;;;;;;;7.60;6.90;;;8.20;99.90;;;;;;5135438;27;20226;-76
2024/02/14 03:35:45;;;;;;;8.95;6.30;;;8.10;99.90;;;;;;5135235;27;20218;-77
2024/02/14 03:38:14;;;;;;;7.25;6.55;;;8.10;99.90;;;;;;5136172;27;20225;-76
2024/02/14 03:40:41;;;;;;;5.80;5.18;;;8.10;99.90;;;;;;5133819;27;20694;-77
2024/02/14 03:43:11;;;;;;;6.18;5.38;;;8.10;99.90;;;;;;5134292;27;20222;-76
2024/02/14 03:45:38;;;;;;;7.38;5.93;;;8.00;99.90;;;;;;5133572;27;20222;-77
2024/02/14 03:48:06;;;;;;;5.72;5.22;;;8.00;99.90;;;;;;5134362;27;20559;-76
2024/02/14 03:50:34;;;;;;;5.82;5.32;;;8.00;99.90;;;;;;5133136;27;20218;-76
2024/02/14 03:53:03;;;;;;;6.28;5.75;;;8.00;99.90;;;;;;5133792;27;20217;-77
2024/02/14 03:55:30;;;;;;;5.82;5.32;;;8.00;99.90;;;;;;5134906;27;20679;-76
2024/02/14 03:57:57;;;;;;;7.90;5.20;;;7.90;99.90;;;;;;5134979;27;20580;-76
2024/02/14 04:00:28;;;;;;;6.65;6.07;;;7.90;99.90;;;;;;5135157;27;20292;-76
2024/02/14 04:02:58;;;;;;;6.28;5.78;;;7.90;99.90;;;;;;5134936;27;20246;-76
2024/02/14 04:05:31;;;;;;;5.60;5.20;;;7.90;99.90;;;;;;5134976;27;20237;-77
2024/02/14 04:08:00;;;;;;;5.60;5.10;;;7.90;99.90;;;;;;5130842;27;20219;-76
2024/02/14 04:10:27;;;;;;;7.10;5.90;;;7.90;99.90;;;;;;5114735;28;20301;-77
2024/02/14 04:12:56;;;;;;;5.95;5.45;;;7.90;99.90;;;;;;5114229;28;20412;-76
2024/02/14 04:15:23;;;;;;;6.22;5.63;;;7.90;99.90;;;;;;5114785;28;20725;-76
2024/02/14 04:17:50;;;;;;;6.18;5.30;;;7.90;99.90;;;;;;5114175;28;20230;-76
2024/02/14 04:20:17;;;;;;;6.75;5.88;;;7.90;99.90;;;;;;5114714;28;20223;-75
2024/02/14 04:22:44;;;;;;;8.25;5.40;;;7.90;99.90;;;;;;5114154;28;20223;-76
2024/02/14 04:25:15;;;;;;;5.93;5.32;;;7.90;99.90;;;;;;5125650;27;20697;-76
2024/02/14 04:27:42;;;;;;;5.80;5.25;;;7.90;99.90;;;;;;5134958;27;20222;-77
2024/02/14 04:30:10;;;;;;;8.27;6.40;;;7.80;99.90;;;;;;5134831;27;20217;-75
2024/02/14 04:32:37;;;;;;;8.75;5.40;;;7.80;99.90;;;;;;5134621;27;20237;-77
2024/02/14 04:35:05;;;;;;;7.72;5.70;;;7.90;99.90;;;;;;5135031;27;20217;-77
2024/02/14 04:37:34;;;;;;;7.45;6.70;;;7.80;99.90;;;;;;5134718;27;20210;-75
2024/02/14 04:40:03;;;;;;;7.88;6.20;;;7.90;99.90;;;;;;5134449;27;20296;-75
2024/02/14 04:42:32;;;;;;;8.32;6.18;;;7.80;99.90;;;;;;5134809;27;20309;-75
2024/02/14 04:44:59;;;;;;;7.35;5.47;;;7.90;99.90;;;;;;5134340;27;20225;-75
2024/02/14 04:47:26;;;;;;;6.68;5.55;;;7.90;99.90;;;;;;5134313;27;20557;-77
2024/02/14 04:49:53;;;;;;;7.32;6.15;;;7.90;99.90;;;;;;5113390;28;20229;-77
2024/02/14 04:52:21;;;;;;;7.50;6.18;;;7.90;99.90;;;;;;5113859;28;20296;-77
2024/02/14 04:54:48;;;;;;;11.27;6.90;;;7.90;99.90;;;;;;5113467;28;20558;-77
2024/02/14 04:57:15;;;;;;;10.20;6.20;;;7.90;99.90;;;;;;5113882;28;20218;-77
2024/02/14 04:59:43;;;;;;;7.43;6.65;;;7.90;99.90;;;;;;5113654;28;20222;-77
2024/02/14 05:02:10;;;;;;;7.82;6.22;;;7.90;99.90;;;;;;5113755;28;20222;-77
2024/02/14 05:04:39;;;;;;;7.43;6.72;;;8.00;99.90;;;;;;5113966;28;20218;-75
2024/02/14 05:07:06;;;;;;;8.25;6.63;;;8.00;99.90;;;;;;5113017;28;20620;-75
2024/02/14 05:09:33;;;;;;;10.20;8.88;;;8.00;99.90;;;;;;5112431;28;20559;-75
2024/02/14 05:12:03;;;;;;;8.60;7.03;;;8.00;99.90;;;;;;5112568;28;20317;-77
2024/02/14 05:14:31;;;;;;;7.38;6.68;;;8.00;99.90;;;;;;5112960;28;20293;-77
2024/02/14 05:17:01;;;;;;;7.28;6.57;;;8.10;99.90;;;;;;5113436;28;20222;-77
2024/02/14 05:19:28;;;;;;;6.63;5.55;;;8.00;99.90;;;;;;5113660;28;20222;-77
2024/02/14 05:21:55;;;;;;;6.88;6.28;;;8.00;99.90;;;;;;5102996;28;20572;-75
2024/02/14 05:24:22;;;;;;;6.80;6.10;;;8.00;99.90;;;;;;5113627;28;20241;-76
2024/02/14 05:26:52;;;;;;;7.95;6.50;;;8.00;99.90;;;;;;5113515;28;20223;-76
2024/02/14 05:29:20;;;;;;;7.70;6.90;;;8.00;99.90;;;;;;5113876;28;20223;-76
2024/02/14 05:31:49;;;;;;;6.22;5.63;;;8.10;99.90;;;;;;5113726;28;20222;-77
2024/02/14 05:34:17;;;;;;;6.82;6.22;;;8.10;99.90;;;;;;5113869;28;20230;-76
2024/02/14 05:36:45;;;;;;;6.80;6.10;;;8.10;99.90;;;;;;5113883;28;20306;-76
2024/02/14 05:39:14;;;;;;;10.98;6.85;;;8.10;99.90;;;;;;5113233;28;20308;-76
2024/02/14 05:41:41;;;;;;;8.18;7.38;;;8.10;99.90;;;;;;5113806;28;20276;-77
2024/02/14 05:44:09;;;;;;;6.80;6.15;;;8.10;99.90;;;;;;5112497;28;20227;-76
2024/02/14 05:46:42;;;;;;;9.13;8.00;;;8.10;99.90;;;;;;5114226;28;20223;-76
2024/02/14 05:49:09;;;;;;;6.63;5.97;;;8.10;99.90;;;;;;5117261;28;20234;-76
2024/02/14 05:51:38;;;;;;;7.65;5.53;;;8.10;99.90;;;;;;5116755;28;20245;-76
2024/02/14 05:54:05;;;;;;;7.53;6.50;;;8.10;99.90;;;;;;5117143;28;20269;-76
2024/02/14 05:56:32;;;;;;;8.23;6.22;;;8.10;99.90;;;;;;5118000;28;20231;-75
2024/02/14 05:58:59;;;;;;;6.90;6.07;;;8.10;99.90;;;;;;5117226;28;20218;-76
2024/02/14 06:01:26;;;;;;;8.02;6.25;;;8.10;99.90;;;;;;5117712;28;20230;-77
2024/02/14 06:03:53;;;;;;;7.38;5.80;;;8.10;99.90;;;;;;5117109;28;20272;-77
2024/02/14 06:06:20;;;;;;;7.43;6.25;;;8.10;99.90;;;;;;5117536;28;20222;-77
2024/02/14 06:08:49;;;;;;;6.70;6.10;;;8.10;99.90;;;;;;5117279;28;20222;-75
2024/02/14 06:11:16;;;;;;;8.95;5.55;;;8.10;99.90;;;;;;5116914;28;20214;-75
2024/02/14 06:13:44;;;;;;;6.50;5.97;;;8.00;99.90;;;;;;5117018;28;20226;-77
2024/02/14 06:16:11;;;;;;;8.52;6.60;;;8.00;99.90;;;;;;5117107;28;20226;-77
2024/02/14 06:18:39;;;;;;;9.70;6.90;;;8.00;99.90;;;;;;5117012;28;20284;-77
2024/02/14 06:21:07;;;;;;;8.38;6.20;;;8.00;99.90;;;;;;5116520;28;20227;-77
2024/02/14 06:23:36;;;;;;;11.45;9.15;;;8.00;99.90;;;;;;5116744;28;20221;-77
2024/02/14 06:26:05;;;;;;;10.23;7.20;;;8.00;99.90;;;;;;5116473;28;20245;-76
2024/02/14 06:28:33;;;;;;;6.80;6.07;;;8.00;99.90;;;;;;5115406;28;20218;-76
2024/02/14 06:31:02;;;;;;;7.03;6.10;;;8.10;99.90;;;;;;5105993;28;20229;-76
2024/02/14 06:33:29;;;;;;;11.88;6.82;;;8.10;99.90;;;;;;5117087;28;20557;-78
2024/02/14 06:35:59;;;;;;;6.57;5.90;;;8.00;99.90;;;;;;5116469;28;20229;-75
2024/02/14 06:38:26;;;;;;;7.57;6.78;;;8.10;99.90;;;;;;5116683;28;20300;-76
2024/02/14 06:40:53;;;;;;;7.30;6.70;;;8.10;99.90;;;;;;5116887;28;20222;-76
2024/02/14 06:43:22;;;;;;;6.85;6.18;;;8.00;99.90;;;;;;5116259;28;20218;-76
2024/02/14 06:45:50;;;;;;;8.73;5.65;;;8.00;99.90;;;;;;5116724;28;20624;-76
2024/02/14 06:48:21;;;;;;;6.43;5.90;;;8.00;99.90;;;;;;5115816;28;20241;-76
2024/02/14 06:50:48;;;;;;;9.93;6.72;;;8.10;99.90;;;;;;5116158;28;20233;-75
2024/02/14 06:53:15;;;;;;;6.72;6.10;;;8.00;99.90;;;;;;5115446;28;20237;-76
2024/02/14 06:55:42;;;;;;;7.82;6.18;;;8.10;99.90;;;;;;5116232;28;20316;-76
2024/02/14 06:58:09;;;;;;;6.65;6.05;;;8.10;99.90;;;;;;5114429;28;20243;-76
2024/02/14 07:00:38;;;;;;;7.10;6.45;;;8.10;99.90;;;;;;5116033;28;20225;-76
2024/02/14 07:03:05;;;;;;;8.90;6.35;;;8.10;99.90;;;;;;5115437;28;20234;-76
2024/02/14 07:05:33;;;;;;;6.68;6.05;;;8.10;99.90;;;;;;5116225;28;20246;-75
2024/02/14 07:08:00;;;;;;;7.10;5.85;;;8.20;99.90;;;;;;5115447;28;20306;-76
2024/02/14 07:10:27;;;;;;;9.07;5.53;;;8.20;99.90;;;;;;5115746;28;20664;-76
2024/02/14 07:12:54;;;;;;;7.53;4.88;;;8.20;99.90;;;;;;5115901;28;20227;-77
2024/02/14 07:15:25;;;;;;;7.38;6.13;;;8.20;99.90;;;;;;5105001;28;20297;-78
2024/02/14 07:17:54;;;;;;;6.85;5.53;;;8.30;99.90;;;;;;5115888;28;20234;-77
2024/02/14 07:20:21;;;;;;;8.60;6.63;;;8.30;99.90;;;;;;5115197;28;20222;-77
2024/02/14 07:22:52;;;;;;;6.90;6.20;;;8.30;99.90;;;;;;5115819;28;20242;-77
2024/02/14 07:25:20;;;;;;;8.82;6.45;;;8.40;99.90;;;;;;5115118;28;20222;-77
2024/02/14 07:27:49;;;;;;;6.88;6.03;;;8.40;99.90;;;;;;5116178;28;20218;-77
2024/02/14 07:30:16;;;;;;;7.68;6.55;;;8.40;99.90;;;;;;5114840;28;20227;-76
2024/02/14 07:32:43;;;;;;;6.60;5.10;;;8.40;99.90;;;;;;5115526;28;20230;-77
2024/02/14 07:35:13;;;;;;;7.88;5.68;;;8.50;99.90;;;;;;5114732;28;20680;-76
2024/02/14 07:37:42;;;;;;;9.90;6.13;;;8.50;99.90;;;;;;5115351;28;20223;-76
2024/02/14 07:40:10;;;;;;;7.15;5.70;;;8.50;99.90;;;;;;5115278;28;20233;-77
2024/02/14 07:42:37;;;;;;;7.53;5.90;;;8.50;99.90;;;;;;5115378;28;20309;-75
2024/02/14 07:45:04;;;;;;;11.48;5.82;;;8.50;99.90;;;;;;5115251;28;20563;-75
2024/02/14 07:47:31;;;;;;;7.95;5.82;;;8.60;99.90;;;;;;5104436;28;20233;-75
2024/02/14 07:49:59;;;;;;;6.22;5.60;;;8.60;99.90;;;;;;5114705;28;20222;-75
2024/02/14 07:52:27;;;;;;;6.20;5.47;;;8.60;99.90;;;;;;5114331;28;20239;-75
2024/02/14 07:54:55;;;;;;;7.00;5.45;;;8.70;99.90;;;;;;5115144;28;20222;-76
2024/02/14 07:57:23;;;;;;;7.50;6.30;;;8.70;99.90;;;;;;5114308;28;20279;-77
2024/02/14 07:59:50;;;;;;;6.88;5.47;;;8.70;99.90;;;;;;5115036;28;20555;-76
2024/02/14 08:02:17;;;;;;;8.25;5.20;;;8.70;99.90;;;;;;5114149;28;20229;-77
2024/02/14 08:04:44;;;;;;;8.90;6.00;;;8.70;99.90;;;;;;5115303;28;20223;-77
2024/02/14 08:07:11;;;;;;;5.57;5.00;;;8.70;99.90;;;;;;5114594;28;20306;-77
2024/02/14 08:09:40;;;;;;;6.78;5.63;;;8.80;99.90;;;;;;5114831;28;20226;-76
2024/02/14 08:12:07;;;;;;;10.00;6.43;;;8.80;99.90;;;;;;5114994;28;20249;-76
2024/02/14 08:14:34;;;;;;;5.97;5.45;;;8.90;99.90;;;;;;5114097;28;20231;-75
2024/02/14 08:17:01;;;;;;;5.45;4.80;;;8.90;99.90;;;;;;5114789;28;20729;-75
2024/02/14 08:19:28;;;;;;;6.25;5.68;;;8.90;99.90;;;;;;5113674;28;20230;-75
2024/02/14 08:22:01;;;;;;;11.25;6.40;;;8.90;99.90;;;;;;5114469;28;20219;-76
2024/02/14 08:24:28;;;;;;;6.50;5.10;;;8.90;99.90;;;;;;5114009;28;20230;-76
2024/02/14 08:26:57;;;;;;;8.25;5.45;;;9.00;99.90;;;;;;5114772;28;20302;-75
2024/02/14 08:29:24;;;;;;;5.90;5.30;;;9.10;99.90;;;;;;5113129;28;20230;-75
2024/02/14 08:31:53;;;;;;;8.55;5.78;;;9.10;99.90;;;;;;5114702;28;20222;-75
2024/02/14 08:34:20;;;;;;;11.82;7.97;;;9.10;99.90;;;;;;5113709;28;20311;-75
2024/02/14 08:36:47;;;;;;;7.63;6.88;;;9.20;99.90;;;;;;5114475;28;20634;-75
2024/02/14 08:39:17;;;;;;;5.78;5.22;;;9.20;99.90;;;;;;5116443;28;20223;-75
2024/02/14 08:41:46;;;;;;;6.40;5.50;;;9.20;99.90;;;;;;5116159;28;20222;-76
2024/02/14 08:44:15;;;;;;;6.95;6.28;;;9.30;99.90;;;;;;5114497;28;20226;-76
2024/02/14 08:46:48;;;;;;;7.55;5.68;;;9.40;99.90;;;;;;5113964;28;20301;-76
2024/02/14 08:49:15;;;;;;;5.05;4.63;;;9.40;99.90;;;;;;5114107;28;20218;-76
2024/02/14 08:51:43;;;;;;;6.82;4.75;;;9.40;99.90;;;;;;5113162;28;20732;-75
2024/02/14 08:54:15;;;;;;;6.32;4.95;;;9.40;99.90;;;;;;5113764;28;20227;-75
2024/02/14 08:56:43;;;;;;;5.72;5.10;;;9.40;99.90;;;;;;5113831;28;20215;-75
2024/02/14 08:59:10;;;;;;;4.88;4.40;;;9.40;99.90;;;;;;5114308;28;20222;-77
2024/02/14 09:01:39;;;;;;;7.72;4.63;;;9.50;99.90;;;;;;5113501;28;20290;-77
2024/02/14 09:04:06;;;;;;;5.38;4.50;;;9.50;99.90;;;;;;5114324;28;20227;-75
2024/02/14 09:06:33;;;;;;;4.10;3.80;;;9.50;99.90;;;;;;5113437;28;20314;-74
2024/02/14 09:09:03;;;;;;;4.30;3.90;;;9.50;99.90;;;;;;5113943;28;20709;-75
2024/02/14 09:11:31;;;;;;;7.38;5.15;;;9.50;99.90;;;;;;5113674;28;20276;-77
2024/02/14 09:14:04;;;;;;;4.70;4.10;;;9.60;99.90;;;;;;5113544;28;20226;-77
2024/02/14 09:16:32;;;;;;;3.83;3.50;;;9.60;99.90;;;;;;5113125;28;20215;-76
2024/02/14 09:19:03;;;;;;;4.03;3.70;;;9.60;99.90;;;;;;5113917;28;20753;-77
2024/02/14 09:21:30;;;;;;;4.78;3.22;;;9.70;99.90;;;;;;5112951;28;20222;-76
2024/02/14 09:23:57;;;;;;;3.35;3.05;;;9.70;99.90;;;;;;5113602;28;20219;-77
2024/02/14 09:26:24;;;;;;;4.97;3.53;;;9.80;99.90;;;;;;5113399;28;20737;-77
2024/02/14 09:28:52;;;;;;;4.95;3.50;;;9.80;99.90;;;;;;5113905;28;20218;-77
2024/02/14 09:31:19;;;;;;;5.15;3.70;;;9.80;99.90;;;;;;5113575;28;20239;-75
2024/02/14 09:33:47;;;;;;;3.92;3.30;;;9.80;99.90;;;;;;5113391;28;20214;-75
2024/02/14 09:36:16;;;;;;;5.10;3.90;;;9.80;99.90;;;;;;5112992;28;20234;-75
2024/02/14 09:38:44;;;;;;;4.80;4.40;;;9.80;99.90;;;;;;5113216;28;20223;-77
2024/02/14 09:41:17;;;;;;;13.13;8.48;;;9.80;99.90;;;;;;5113913;28;20219;-75
2024/02/14 09:43:46;;;;;;;7.85;6.53;;;9.90;99.90;;;;;;5113132;28;20601;-75
2024/02/14 09:46:15;;;;;;;4.65;4.25;;;9.90;99.90;;;;;;5113745;28;20272;-75
2024/02/14 09:48:44;;;;;;;4.88;3.60;;;9.90;99.90;;;;;;5113193;28;20230;-75
2024/02/14 09:51:12;;;;;;;4.03;3.72;;;9.90;99.90;;;;;;5113393;28;20660;-75
2024/02/14 09:53:41;;;;;;;6.15;3.65;;;9.90;99.90;;;;;;5112881;28;20725;-75
2024/02/14 09:56:11;;;;;;;4.28;3.42;;;9.90;99.90;;;;;;5113794;28;20248;-76
2024/02/14 09:58:38;;;;;;;4.93;4.32;;;9.90;99.90;;;;;;5111542;27;20660;-75
2024/02/14 10:01:06;;;;;;;4.45;3.38;;;9.90;99.90;;;;;;5130693;27;20218;-75
2024/02/14 10:03:33;;;;;;;3.90;3.47;;;9.90;99.90;;;;;;5132620;27;20283;-75
2024/02/14 10:06:01;;;;;;;4.25;3.85;;;9.90;99.90;;;;;;5134081;27;20230;-75
2024/02/14 10:08:29;;;;;;;4.15;3.28;;;10.00;99.90;;;;;;5132853;27;20217;-74
2024/02/14 10:11:04;;;;;;;5.38;4.10;;;10.00;99.90;;;;;;5134094;27;20228;-76
2024/02/14 10:13:31;;;;;;;5.15;3.25;;;10.00;99.90;;;;;;5132997;27;20225;-75
2024/02/14 10:15:58;;;;;;;4.38;3.67;;;10.00;99.90;;;;;;5133448;27;20221;-77
2024/02/14 10:18:26;;;;;;;3.72;3.28;;;10.00;99.90;;;;;;5133287;27;20222;-77
2024/02/14 10:20:55;;;;;;;4.43;3.35;;;10.00;99.90;;;;;;5133548;27;20678;-77
2024/02/14 10:23:22;;;;;;;5.85;3.85;;;10.10;99.90;;;;;;5133531;27;20229;-75
2024/02/14 10:25:55;;;;;;;7.57;4.30;;;10.10;99.90;;;;;;5132978;27;20297;-76
2024/02/14 10:28:28;;;;;;;12.43;10.00;;;10.10;99.90;;;;;;5133464;27;20253;-75
2024/02/14 10:31:04;;;;;;;7.35;4.88;;;10.10;99.90;;;;;;5133274;27;20720;-75
2024/02/14 10:33:31;;;;;;;4.60;4.10;;;10.10;99.90;;;;;;5135114;27;20218;-77
2024/02/14 10:36:02;;;;;;;3.17;2.88;;;10.00;99.90;;;;;;5128188;27;20218;-77
2024/02/14 10:38:33;;;;;;;6.28;3.83;;;10.10;99.90;;;;;;5136883;27;20551;-75
2024/02/14 10:41:01;;;;;;;3.45;3.15;;;10.10;99.90;;;;;;5136971;27;20217;-75
2024/02/14 10:43:36;;;;;;;3.88;3.10;;;10.20;99.90;;;;;;5137114;27;20286;-75
2024/02/14 10:46:09;;;;;;;4.07;2.67;;;10.20;99.90;;;;;;5136655;27;20221;-75
2024/02/14 10:48:39;;;;;;;6.65;3.42;;;10.20;99.90;;;;;;5135734;27;20230;-75
2024/02/14 10:51:10;;;;;;;4.72;3.72;;;10.30;99.90;;;;;;5140677;27;20647;-75
2024/02/14 10:53:42;;;;;;;5.18;3.22;;;10.30;99.90;;;;;;5157417;27;20290;-75
2024/02/14 10:56:10;;;;;;;2.90;2.70;;;10.20;99.90;;;;;;5156835;27;20224;-75
2024/02/14 10:58:39;;;;;;;4.70;4.00;;;10.20;99.90;;;;;;5157513;27;20256;-75
2024/02/14 11:01:07;;;;;;;8.25;3.60;;;10.30;99.90;;;;;;5131397;27;20243;-75
2024/02/14 11:03:35;;;;;;;4.32;3.33;;;10.30;99.90;;;;;;5124412;27;20230;-75
2024/02/14 11:06:03;;;;;;;3.65;3.35;;;10.40;99.90;;;;;;5135489;27;20222;-75
2024/02/14 11:08:35;;;;;;;6.18;3.50;;;10.40;99.90;;;;;;5136185;27;20671;-75
2024/02/14 11:11:06;;;;;;;4.10;3.33;;;10.40;99.90;;;;;;5135727;27;20228;-75
2024/02/14 11:13:33;;;;;;;3.40;3.10;;;10.50;99.90;;;;;;5136608;27;20312;-75
2024/02/14 11:16:04;;;;;;;4.25;3.10;;;10.50;99.90;;;;;;5135927;27;20571;-75
2024/02/14 11:18:32;;;;;;;4.47;3.40;;;10.50;99.90;;;;;;5136424;27;20313;-75
2024/02/14 11:21:03;;;;;;;4.32;3.33;;;10.60;99.90;;;;;;5135970;27;20226;-75
2024/02/14 11:23:32;;;;;;;3.97;3.47;;;10.60;99.90;;;;;;5136400;27;20589;-75
2024/02/14 11:26:04;;;;;;;14.50;9.80;;;10.60;99.90;;;;;;5135746;27;20229;-75
2024/02/14 11:28:31;;;;;;;14.38;8.93;;;10.70;99.90;;;;;;5136381;27;20232;-76
2024/02/14 11:31:03;;;;;;;4.75;4.32;;;10.70;99.90;;;;;;5135745;27;20222;-75
2024/02/14 11:33:31;;;;;;;9.02;7.03;;;10.70;99.90;;;;;;5135961;27;20222;-75
2024/02/14 11:36:01;;;;;;;4.55;3.80;;;10.70;99.90;;;;;;5135390;27;20225;-75
2024/02/14 11:38:29;;;;;;;6.97;3.80;;;10.70;99.90;;;;;;5135595;27;20275;-75
2024/02/14 11:40:57;;;;;;;6.70;4.85;;;10.70;99.90;;;;;;5135210;27;20320;-75
2024/02/14 11:43:24;;;;;;;3.92;3.60;;;10.70;99.90;;;;;;5136082;27;20218;-76
2024/02/14 11:45:52;;;;;;;9.65;4.45;;;10.70;99.90;;;;;;5134777;27;20222;-77
2024/02/14 11:48:21;;;;;;;3.67;3.40;;;10.70;99.90;;;;;;5135247;27;20234;-77
2024/02/14 11:50:48;;;;;;;8.43;4.97;;;10.80;99.90;;;;;;5135644;27;20276;-75
2024/02/14 11:53:21;;;;;;;6.38;3.70;;;10.70;99.90;;;;;;5135081;27;20241;-75
2024/02/14 11:55:48;;;;;;;5.93;4.97;;;10.70;99.90;;;;;;5135417;27;20237;-75
2024/02/14 11:58:17;;;;;;;3.80;2.90;;;10.70;99.90;;;;;;5134939;27;20218;-76
2024/02/14 12:00:45;;;;;;;4.32;3.90;;;10.60;99.90;;;;;;5135512;27;20719;-77
2024/02/14 12:03:16;;;;;;;10.10;5.53;;;10.70;99.90;;;;;;5134921;27;20232;-77
2024/02/14 12:05:47;;;;;;;5.78;3.63;;;10.80;99.90;;;;;;5096118;27;20227;-77
2024/02/14 12:08:15;;;;;;;5.22;3.97;;;10.70;99.90;;;;;;5111468;28;20534;-77
2024/02/14 12:10:46;;;;;;;5.05;3.75;;;10.70;99.90;;;;;;5114623;28;20543;-77
2024/02/14 12:13:15;;;;;;;4.60;3.92;;;10.70;99.90;;;;;;5130339;27;20218;-75
2024/02/14 12:15:45;;;;;;;9.63;6.13;;;10.70;99.90;;;;;;5135167;27;20694;-75
2024/02/14 12:18:13;;;;;;;6.72;4.03;;;10.80;99.90;;;;;;5134266;27;20221;-77
2024/02/14 12:20:41;;;;;;;4.05;3.60;;;10.80;99.90;;;;;;5134850;27;20318;-76
2024/02/14 12:23:17;;;;;;;4.95;3.85;;;10.80;99.90;;;;;;5134437;27;20225;-75
2024/02/14 12:25:46;;;;;;;3.83;3.42;;;10.70;99.90;;;;;;5124563;27;20632;-75
2024/02/14 12:28:16;;;;;;;7.75;5.45;;;10.80;99.90;;;;;;5115354;27;20230;-77
2024/02/14 12:30:46;;;;;;;9.77;6.22;;;10.80;99.90;;;;;;5112972;28;20696;-76
2024/02/14 12:33:13;;;;;;;3.92;3.53;;;10.80;99.90;;;;;;5114006;28;20222;-77
2024/02/14 12:35:43;;;;;;;5.32;3.80;;;10.90;99.90;;;;;;5113729;28;20249;-76
2024/02/14 12:38:13;;;;;;;5.78;4.80;;;10.90;99.90;;;;;;5113043;28;20234;-77
2024/02/14 12:40:41;;;;;;;7.68;5.05;;;11.00;99.90;;;;;;5114413;28;20221;-75
2024/02/14 12:43:08;;;;;;;5.95;4.43;;;11.00;99.90;;;;;;5112947;28;20313;-75
2024/02/14 12:45:35;;;;;;;4.38;3.97;;;11.10;99.90;;;;;;5114127;28;20234;-75
2024/02/14 12:48:03;;;;;;;8.20;5.95;;;11.10;99.90;;;;;;5113061;28;20223;-75
2024/02/14 12:50:34;;;;;;;5.30;4.80;;;11.10;99.90;;;;;;5112863;28;20676;-75
2024/02/14 12:53:02;;;;;;;6.32;4.57;;;11.00;99.90;;;;;;5113094;28;20684;-75
2024/02/14 12:55:30;;;;;;;7.25;3.70;;;11.00;99.90;;;;;;5113917;28;20320;-75
2024/02/14 12:57:59;;;;;;;6.15;3.90;;;11.10;99.90;;;;;;5113265;28;20218;-75
2024/02/14 13:00:26;;;;;;;5.22;3.28;;;11.10;99.90;;;;;;5113303;28;20229;-75